Time;durP1;ratioP1;P1;durP2;ratioP2;P2;SDS_P1;SDS_P2;PMS_P1;PMS_P2;Temp;Humidity;BMP_temperature;BMP_pressure;BME280_temperature;BME280_humidity;BME280_pressure;Samples;Min_cycle;Max_cycle;Signal;HPM_P1;HPM_P2
2023/03/03 00:00:41;;;;;;;36.55;14.23;;;5.50;99.90;;;;;;5080686;28;20070;-71
2023/03/03 00:03:09;;;;;;;32.70;14.18;;;5.50;99.90;;;;;;5080627;28;20051;-72
2023/03/03 00:05:36;;;;;;;35.53;14.10;;;5.40;99.90;;;;;;5080917;28;20046;-72
2023/03/03 00:08:02;;;;;;;38.10;14.00;;;5.40;99.90;;;;;;5081325;28;20024;-71
2023/03/03 00:10:28;;;;;;;36.40;14.48;;;5.50;99.90;;;;;;5080526;28;20020;-72
2023/03/03 00:12:54;;;;;;;36.97;14.07;;;5.50;99.90;;;;;;5080341;28;20031;-72
2023/03/03 00:15:23;;;;;;;44.42;15.13;;;5.40;99.90;;;;;;5080880;28;20031;-72
2023/03/03 00:17:49;;;;;;;35.17;13.98;;;5.40;99.90;;;;;;5098041;28;20075;-71
2023/03/03 00:20:35;;;;;;;34.45;14.25;;;5.40;99.90;;;;;;5080313;28;20031;-72
2023/03/03 00:23:25;;;;;;;34.03;14.10;;;5.40;99.90;;;;;;5081026;28;20020;-72
2023/03/03 00:25:52;;;;;;;36.17;14.35;;;5.40;99.90;;;;;;5080144;28;20024;-72
2023/03/03 00:28:26;;;;;;;40.20;14.13;;;5.40;99.90;;;;;;5097941;28;20095;-71
2023/03/03 00:30:54;;;;;;;43.83;15.15;;;5.20;99.90;;;;;;5080145;28;20051;-72
2023/03/03 00:33:38;;;;;;;33.42;13.98;;;5.30;99.90;;;;;;5098128;28;20020;-72
2023/03/03 00:36:34;;;;;;;37.75;15.48;;;5.20;99.90;;;;;;5080150;28;20056;-72
2023/03/03 00:39:24;;;;;;;41.00;15.13;;;5.20;99.90;;;;;;5097870;28;20046;-72
2023/03/03 00:41:50;;;;;;;39.25;15.18;;;5.20;99.90;;;;;;5080969;28;20032;-71
2023/03/03 00:44:44;;;;;;;38.80;15.35;;;5.20;99.90;;;;;;5079884;28;20042;-71
2023/03/03 00:47:32;;;;;;;35.58;13.82;;;5.10;99.90;;;;;;5080485;28;20043;-71
2023/03/03 00:50:06;;;;;;;37.25;15.13;;;5.10;99.90;;;;;;5097917;28;20031;-71
2023/03/03 00:52:38;;;;;;;42.10;17.15;;;5.10;99.90;;;;;;5080546;28;20020;-72
2023/03/03 00:55:05;;;;;;;37.65;15.52;;;5.00;99.90;;;;;;5097605;28;20103;-71
2023/03/03 00:57:30;;;;;;;42.58;16.00;;;5.00;99.90;;;;;;5080156;28;20020;-72
2023/03/03 00:59:56;;;;;;;41.17;15.15;;;5.00;99.90;;;;;;5079827;28;20027;-71
2023/03/03 01:02:22;;;;;;;44.35;16.35;;;4.90;99.90;;;;;;5079619;28;20028;-73
2023/03/03 01:04:55;;;;;;;39.25;16.65;;;4.90;99.90;;;;;;5079485;28;20154;-72
2023/03/03 01:07:21;;;;;;;42.53;15.40;;;4.90;99.90;;;;;;5097274;28;20019;-71
2023/03/03 01:09:47;;;;;;;41.28;15.10;;;4.90;99.90;;;;;;5079468;28;20064;-72
2023/03/03 01:12:13;;;;;;;39.70;15.00;;;4.90;99.90;;;;;;5079995;28;20092;-72
2023/03/03 01:14:39;;;;;;;43.65;15.68;;;4.70;99.90;;;;;;5079667;28;20107;-72
2023/03/03 01:17:05;;;;;;;39.63;15.65;;;4.70;99.90;;;;;;5079963;28;20100;-72
2023/03/03 01:19:31;;;;;;;40.78;15.63;;;4.70;99.90;;;;;;5079233;28;20028;-72
2023/03/03 01:21:57;;;;;;;36.55;15.25;;;4.70;99.90;;;;;;5079420;28;20020;-72
2023/03/03 01:24:23;;;;;;;38.95;16.60;;;4.70;99.90;;;;;;5097457;28;20052;-72
2023/03/03 01:26:48;;;;;;;41.67;15.10;;;4.70;99.90;;;;;;5079373;28;20026;-72
2023/03/03 01:29:14;;;;;;;37.58;15.68;;;4.70;99.90;;;;;;5079727;28;20020;-72
2023/03/03 01:31:39;;;;;;;37.00;15.52;;;4.70;99.90;;;;;;5079504;28;20031;-72
2023/03/03 01:34:06;;;;;;;40.38;15.38;;;4.70;99.90;;;;;;5079744;28;20081;-71
2023/03/03 01:36:32;;;;;;;40.25;15.65;;;4.70;99.90;;;;;;5097298;28;20096;-72
2023/03/03 01:38:58;;;;;;;31.52;14.27;;;4.70;99.90;;;;;;5079369;28;20028;-72
2023/03/03 01:41:28;;;;;;;37.45;15.75;;;4.70;99.90;;;;;;5097198;28;20032;-72
2023/03/03 01:43:54;;;;;;;40.78;16.17;;;4.70;99.90;;;;;;5097470;28;20101;-72
2023/03/03 01:46:23;;;;;;;41.50;16.25;;;4.60;99.90;;;;;;5079233;28;20024;-71
2023/03/03 01:48:54;;;;;;;44.28;16.38;;;4.60;99.90;;;;;;5096852;28;20077;-72
2023/03/03 01:51:27;;;;;;;45.13;17.27;;;4.60;99.90;;;;;;5080220;28;20025;-71
2023/03/03 01:54:18;;;;;;;43.90;16.05;;;4.60;99.90;;;;;;5079041;28;20032;-71
2023/03/03 01:56:44;;;;;;;40.85;15.70;;;4.40;99.90;;;;;;5080018;28;20025;-72
2023/03/03 01:59:20;;;;;;;42.10;16.42;;;4.40;99.90;;;;;;5079132;28;20024;-71
2023/03/03 02:01:47;;;;;;;49.75;16.25;;;4.50;99.90;;;;;;5097555;28;20052;-71
2023/03/03 02:04:13;;;;;;;43.72;16.50;;;4.30;99.90;;;;;;5079057;28;20028;-72
2023/03/03 02:06:43;;;;;;;39.42;14.63;;;4.20;99.90;;;;;;5079030;28;20024;-72
2023/03/03 02:09:22;;;;;;;44.13;17.33;;;4.20;99.90;;;;;;5096998;28;20048;-68
2023/03/03 02:11:51;;;;;;;49.38;17.13;;;4.30;99.90;;;;;;5079740;28;20024;-68
2023/03/03 02:14:17;;;;;;;41.20;15.77;;;4.30;99.90;;;;;;5079509;28;20025;-68
2023/03/03 02:16:43;;;;;;;42.22;16.77;;;4.30;99.90;;;;;;5081176;28;20056;-68
2023/03/03 02:19:25;;;;;;;45.17;16.05;;;4.30;99.90;;;;;;5100335;28;20115;-68
2023/03/03 02:21:51;;;;;;;43.78;16.00;;;4.20;99.90;;;;;;5083015;28;20078;-69
2023/03/03 02:24:27;;;;;;;43.58;17.35;;;4.20;99.90;;;;;;5082632;28;20028;-68
2023/03/03 02:26:53;;;;;;;42.03;16.02;;;4.20;99.90;;;;;;5100463;28;20023;-69
2023/03/03 02:29:19;;;;;;;42.60;16.73;;;4.10;99.90;;;;;;5083025;28;20024;-68
2023/03/03 02:31:44;;;;;;;43.05;16.08;;;4.20;99.90;;;;;;5082448;28;20027;-69
2023/03/03 02:34:10;;;;;;;41.00;16.95;;;4.10;99.90;;;;;;5082445;28;20070;-69
2023/03/03 02:36:38;;;;;;;41.28;16.35;;;4.10;99.90;;;;;;5082215;28;20020;-68
2023/03/03 02:39:09;;;;;;;41.33;15.93;;;4.10;99.90;;;;;;5082258;28;20114;-68
2023/03/03 02:41:48;;;;;;;46.35;16.70;;;4.10;99.90;;;;;;5082198;28;20032;-68
2023/03/03 02:44:16;;;;;;;45.55;16.25;;;4.10;99.90;;;;;;5082282;28;20031;-68
2023/03/03 02:46:46;;;;;;;41.70;16.80;;;4.00;99.90;;;;;;5082219;28;20118;-68
2023/03/03 02:49:14;;;;;;;40.38;16.55;;;4.00;99.90;;;;;;5099702;28;20032;-68
2023/03/03 02:51:40;;;;;;;42.88;16.50;;;4.00;99.90;;;;;;5099795;28;20099;-68
2023/03/03 02:54:07;;;;;;;50.08;17.85;;;3.90;99.90;;;;;;5082236;28;20031;-68
2023/03/03 02:56:32;;;;;;;41.50;16.88;;;3.80;99.90;;;;;;5081956;28;20080;-68
2023/03/03 02:58:58;;;;;;;43.95;16.88;;;3.70;99.90;;;;;;5082141;28;20028;-68
2023/03/03 03:01:24;;;;;;;45.63;17.15;;;3.80;99.90;;;;;;5082465;28;20024;-68
2023/03/03 03:03:50;;;;;;;48.17;17.90;;;3.80;99.90;;;;;;5082385;28;20038;-69
2023/03/03 03:06:15;;;;;;;44.10;16.52;;;3.80;99.90;;;;;;5082210;28;20016;-68
2023/03/03 03:08:41;;;;;;;42.13;16.52;;;3.80;99.90;;;;;;5081634;28;20020;-69
2023/03/03 03:11:06;;;;;;;44.33;16.42;;;3.70;99.90;;;;;;5082033;28;20024;-68
2023/03/03 03:13:32;;;;;;;45.33;18.23;;;3.60;99.90;;;;;;5081892;28;20032;-69
2023/03/03 03:15:59;;;;;;;44.83;18.48;;;3.70;99.90;;;;;;5081484;28;20111;-69
2023/03/03 03:18:25;;;;;;;46.95;17.67;;;3.60;99.90;;;;;;5099642;28;20081;-69
2023/03/03 03:20:50;;;;;;;48.17;17.92;;;3.50;99.90;;;;;;5081434;28;20032;-70
2023/03/03 03:23:16;;;;;;;56.13;20.35;;;3.50;99.90;;;;;;5099202;28;20024;-69
2023/03/03 03:25:45;;;;;;;48.13;17.92;;;3.50;99.90;;;;;;5081437;28;20024;-69
2023/03/03 03:28:11;;;;;;;51.25;18.45;;;3.60;99.90;;;;;;5080384;28;20020;-69
2023/03/03 03:30:37;;;;;;;47.67;19.50;;;3.70;99.90;;;;;;5081718;28;20035;-69
2023/03/03 03:33:03;;;;;;;54.58;19.77;;;3.80;99.90;;;;;;5081324;28;20064;-69
2023/03/03 03:35:29;;;;;;;57.13;19.58;;;3.70;99.90;;;;;;5098946;28;20111;-69
2023/03/03 03:37:54;;;;;;;50.15;19.05;;;3.80;99.90;;;;;;5081243;28;20035;-70
2023/03/03 03:40:20;;;;;;;49.40;19.08;;;3.70;99.90;;;;;;5081026;28;20028;-69
2023/03/03 03:42:45;;;;;;;57.35;20.50;;;3.70;99.90;;;;;;5081058;28;20045;-69
2023/03/03 03:45:14;;;;;;;51.22;19.33;;;3.60;99.90;;;;;;5081319;28;20020;-69
2023/03/03 03:50:08;;;;;;;58.17;20.45;;;3.70;99.90;;;;;;5059781;22;20081;-68
2023/03/03 03:52:34;;;;;;;52.03;20.00;;;3.70;99.90;;;;;;5022229;28;20032;-69
2023/03/03 03:55:00;;;;;;;51.30;20.48;;;3.50;99.90;;;;;;5023822;28;20116;-68
2023/03/03 03:57:25;;;;;;;59.63;21.42;;;3.60;99.90;;;;;;5022516;28;20035;-69
2023/03/03 03:59:51;;;;;;;58.55;21.13;;;3.60;99.90;;;;;;5021336;28;20032;-65
2023/03/03 04:02:16;;;;;;;52.85;19.05;;;3.60;99.90;;;;;;5021556;28;20048;-66
2023/03/03 04:04:42;;;;;;;59.25;19.42;;;3.60;99.90;;;;;;5039086;28;20021;-68
2023/03/03 04:07:08;;;;;;;55.67;20.65;;;3.70;99.90;;;;;;5039186;28;20030;-68
2023/03/03 04:09:33;;;;;;;51.70;19.92;;;3.70;99.90;;;;;;5021623;28;20021;-68
2023/03/03 04:11:59;;;;;;;54.13;18.92;;;3.60;99.90;;;;;;5039394;28;20033;-69
2023/03/03 04:14:24;;;;;;;54.75;19.45;;;3.70;99.90;;;;;;5024385;28;20028;-69
2023/03/03 04:16:50;;;;;;;43.22;17.42;;;3.80;99.90;;;;;;5022021;28;20025;-66
2023/03/03 04:19:15;;;;;;;47.88;18.80;;;3.80;99.90;;;;;;5039853;28;20028;-66
2023/03/03 04:21:41;;;;;;;52.80;19.95;;;3.80;99.90;;;;;;5025826;28;20041;-66
2023/03/03 04:24:07;;;;;;;48.92;17.38;;;3.80;99.90;;;;;;5021392;28;20044;-66
2023/03/03 04:26:32;;;;;;;49.83;18.67;;;3.60;99.90;;;;;;5021784;28;20030;-68
2023/03/03 04:28:58;;;;;;;48.25;18.98;;;3.60;99.90;;;;;;5022574;28;20104;-68
2023/03/03 04:31:24;;;;;;;46.55;17.80;;;3.40;99.90;;;;;;5021983;28;20087;-68
2023/03/03 04:33:51;;;;;;;49.97;18.35;;;3.50;99.90;;;;;;5021142;28;20032;-68
2023/03/03 04:36:16;;;;;;;53.72;18.38;;;3.40;99.90;;;;;;5021506;28;20029;-68
2023/03/03 04:38:42;;;;;;;45.97;18.10;;;3.40;99.90;;;;;;5021817;28;20085;-65
2023/03/03 04:41:08;;;;;;;55.10;19.42;;;3.50;99.90;;;;;;5022061;28;20030;-66
2023/03/03 04:43:33;;;;;;;52.80;17.92;;;3.40;99.90;;;;;;5021660;28;20021;-65
2023/03/03 04:45:59;;;;;;;59.50;18.95;;;3.40;99.90;;;;;;5021901;28;20021;-65
2023/03/03 04:48:24;;;;;;;59.38;18.80;;;3.40;99.90;;;;;;5020563;28;20030;-66
2023/03/03 04:50:50;;;;;;;55.67;20.23;;;3.10;99.90;;;;;;5021161;28;20033;-66
2023/03/03 04:53:15;;;;;;;47.03;17.38;;;2.90;99.90;;;;;;5053124;28;20087;-66
2023/03/03 04:55:41;;;;;;;49.35;17.85;;;3.00;99.90;;;;;;5041449;28;20036;-65
2023/03/03 04:58:09;;;;;;;49.80;19.05;;;3.20;99.90;;;;;;5040587;28;20031;-66
2023/03/03 05:00:34;;;;;;;48.70;17.17;;;3.40;99.90;;;;;;5058301;28;20025;-65
2023/03/03 05:03:00;;;;;;;49.38;18.33;;;3.40;99.90;;;;;;5040493;28;20028;-66
2023/03/03 05:05:26;;;;;;;46.65;17.55;;;3.50;99.90;;;;;;5040373;28;20036;-66
2023/03/03 05:07:52;;;;;;;50.25;18.50;;;3.60;99.90;;;;;;5058110;28;20107;-66
2023/03/03 05:10:18;;;;;;;48.20;17.55;;;3.60;99.90;;;;;;5057941;28;20067;-66
2023/03/03 05:12:43;;;;;;;47.97;18.60;;;3.60;99.90;;;;;;5057974;28;20021;-66
2023/03/03 05:15:11;;;;;;;52.28;18.58;;;3.60;99.90;;;;;;5040759;28;20029;-68
2023/03/03 05:17:36;;;;;;;53.70;17.48;;;3.40;99.90;;;;;;5040938;28;20028;-68
2023/03/03 05:20:04;;;;;;;50.58;18.38;;;3.40;99.90;;;;;;5039341;28;20031;-68
2023/03/03 05:22:30;;;;;;;48.83;19.02;;;3.20;99.90;;;;;;5040309;28;20017;-68
2023/03/03 05:24:56;;;;;;;43.30;16.30;;;3.20;99.90;;;;;;5039408;28;20025;-68
2023/03/03 05:27:22;;;;;;;48.65;18.33;;;3.20;99.90;;;;;;5056878;28;20024;-68
2023/03/03 05:29:47;;;;;;;49.28;19.50;;;3.40;99.90;;;;;;5056716;28;20021;-68
2023/03/03 05:32:13;;;;;;;50.58;17.10;;;3.20;99.90;;;;;;5056818;28;20108;-68
2023/03/03 05:34:38;;;;;;;49.30;17.67;;;2.80;99.90;;;;;;5040160;28;20017;-69
2023/03/03 05:37:05;;;;;;;51.92;16.95;;;2.80;99.90;;;;;;5039531;28;20021;-69
2023/03/03 05:39:31;;;;;;;48.35;16.05;;;2.60;99.90;;;;;;5039568;28;20048;-69
2023/03/03 05:41:57;;;;;;;40.88;14.18;;;2.50;99.90;;;;;;5056747;28;20103;-69
2023/03/03 05:44:22;;;;;;;37.35;15.20;;;2.50;99.90;;;;;;5056757;28;20103;-69
2023/03/03 05:46:48;;;;;;;46.30;17.20;;;2.60;99.90;;;;;;5039324;28;20021;-66
2023/03/03 05:49:13;;;;;;;35.00;13.93;;;2.70;99.90;;;;;;5057079;28;20033;-66
2023/03/03 05:51:39;;;;;;;43.40;15.43;;;3.00;99.90;;;;;;5041449;28;20040;-68
2023/03/03 05:54:04;;;;;;;42.00;15.40;;;2.80;99.90;;;;;;5043055;28;20029;-68
2023/03/03 05:56:30;;;;;;;39.20;14.32;;;2.90;99.90;;;;;;5043063;28;20029;-66
2023/03/03 05:58:55;;;;;;;45.67;16.83;;;3.00;99.90;;;;;;5043096;28;20032;-65
2023/03/03 06:01:21;;;;;;;48.63;16.02;;;3.00;99.90;;;;;;5042902;28;20025;-66
2023/03/03 06:03:46;;;;;;;45.58;15.90;;;3.10;99.90;;;;;;5043298;28;20021;-66
2023/03/03 06:06:13;;;;;;;38.10;14.30;;;2.90;99.90;;;;;;5043059;28;20017;-68
2023/03/03 06:08:38;;;;;;;48.25;16.45;;;3.00;99.90;;;;;;5060326;28;20045;-68
2023/03/03 06:11:04;;;;;;;48.97;15.10;;;2.80;99.90;;;;;;5042779;28;20040;-68
2023/03/03 06:13:29;;;;;;;46.42;15.88;;;2.70;99.90;;;;;;5042829;28;20033;-68
2023/03/03 06:15:55;;;;;;;40.17;15.23;;;2.80;99.90;;;;;;5043161;28;20033;-68
2023/03/03 06:18:20;;;;;;;43.40;14.88;;;2.60;99.90;;;;;;5042701;28;20021;-68
2023/03/03 06:20:51;;;;;;;46.28;15.98;;;2.60;99.90;;;;;;5060167;28;20025;-68
2023/03/03 06:23:17;;;;;;;41.40;14.32;;;2.50;99.90;;;;;;5060437;28;20017;-68
2023/03/03 06:25:43;;;;;;;47.40;15.88;;;2.50;99.90;;;;;;5042984;28;20025;-68
2023/03/03 06:28:08;;;;;;;43.13;15.43;;;2.70;99.90;;;;;;5043983;28;20021;-68
2023/03/03 06:30:34;;;;;;;42.22;15.77;;;2.50;99.90;;;;;;5046593;28;20114;-68
2023/03/03 06:33:00;;;;;;;41.67;13.98;;;2.50;99.90;;;;;;5042457;28;20017;-68
2023/03/03 06:35:25;;;;;;;36.03;13.90;;;2.90;99.90;;;;;;5043124;28;20184;-68
2023/03/03 06:37:51;;;;;;;43.45;15.50;;;3.10;99.90;;;;;;5042659;28;20040;-69
2023/03/03 06:40:17;;;;;;;37.38;14.90;;;3.20;99.90;;;;;;5042359;28;20029;-69
2023/03/03 06:42:42;;;;;;;37.33;15.48;;;2.90;99.90;;;;;;5060142;28;20021;-69
2023/03/03 06:45:08;;;;;;;41.47;13.30;;;3.00;99.90;;;;;;5043385;28;20100;-69
2023/03/03 06:47:34;;;;;;;39.67;14.57;;;3.00;99.90;;;;;;5042320;28;20023;-67
2023/03/03 06:49:59;;;;;;;37.88;14.02;;;3.10;99.90;;;;;;5060521;28;20039;-67
2023/03/03 06:52:26;;;;;;;36.47;14.68;;;3.10;99.90;;;;;;5042303;28;20048;-67
2023/03/03 06:54:57;;;;;;;37.83;13.45;;;3.10;99.90;;;;;;5042024;28;20033;-67
2023/03/03 06:57:31;;;;;;;40.47;13.70;;;2.90;99.90;;;;;;5059540;28;20025;-67
2023/03/03 07:00:09;;;;;;;35.40;12.75;;;3.10;99.90;;;;;;5059238;28;20036;-67
2023/03/03 07:02:34;;;;;;;35.45;13.10;;;3.00;99.90;;;;;;5058511;28;20072;-67
2023/03/03 07:05:00;;;;;;;34.22;12.63;;;2.80;99.90;;;;;;5041658;28;20159;-67
2023/03/03 07:07:26;;;;;;;32.03;11.23;;;2.90;99.90;;;;;;5059268;28;20033;-67
2023/03/03 07:09:54;;;;;;;29.05;12.48;;;2.90;99.90;;;;;;5041820;28;20025;-67
2023/03/03 07:12:26;;;;;;;29.65;10.35;;;2.90;99.90;;;;;;5059243;28;20021;-67
2023/03/03 07:15:13;;;;;;;33.42;12.90;;;2.80;99.90;;;;;;5059247;28;20095;-67
2023/03/03 07:17:44;;;;;;;24.25;10.30;;;2.80;99.90;;;;;;5041805;28;20032;-67
2023/03/03 07:20:37;;;;;;;25.77;10.25;;;2.90;99.90;;;;;;5059033;28;20052;-67
2023/03/03 07:23:14;;;;;;;26.15;9.73;;;3.00;99.90;;;;;;5038326;28;20060;-66
2023/03/03 07:25:40;;;;;;;25.83;9.80;;;3.10;99.90;;;;;;5041694;28;20025;-66
2023/03/03 07:28:21;;;;;;;24.48;9.52;;;3.20;99.90;;;;;;5042506;28;20023;-66
2023/03/03 07:30:47;;;;;;;22.80;10.18;;;3.30;99.90;;;;;;5041378;28;20037;-66
2023/03/03 07:33:22;;;;;;;27.27;10.18;;;3.20;99.90;;;;;;5062171;28;20021;-66
2023/03/03 07:35:48;;;;;;;29.30;9.52;;;3.30;99.90;;;;;;5044282;28;20039;-66
2023/03/03 07:38:38;;;;;;;30.17;10.57;;;3.20;99.90;;;;;;5063772;28;20029;-66
2023/03/03 07:41:10;;;;;;;27.83;10.57;;;3.00;99.90;;;;;;5042504;28;20029;-66
2023/03/03 07:43:49;;;;;;;26.58;9.23;;;2.90;99.90;;;;;;5061068;28;20051;-66
2023/03/03 07:46:26;;;;;;;23.35;9.77;;;2.90;99.90;;;;;;5041689;28;20040;-67
2023/03/03 07:48:53;;;;;;;26.77;9.50;;;3.20;99.90;;;;;;5044172;28;20032;-66
2023/03/03 07:51:26;;;;;;;24.95;9.52;;;3.20;99.90;;;;;;5041160;28;20071;-66
2023/03/03 07:54:15;;;;;;;25.05;9.50;;;3.30;99.90;;;;;;5041366;28;20080;-66
2023/03/03 07:56:41;;;;;;;24.52;9.05;;;3.30;99.90;;;;;;5031116;28;20037;-66
2023/03/03 07:59:21;;;;;;;28.90;9.25;;;3.40;99.90;;;;;;5040798;28;20025;-66
2023/03/03 08:01:51;;;;;;;27.58;10.18;;;3.50;99.90;;;;;;5040744;28;20021;-67
2023/03/03 08:04:26;;;;;;;28.38;10.73;;;3.30;99.90;;;;;;5058391;28;20029;-67
2023/03/03 08:06:57;;;;;;;23.95;9.15;;;3.40;99.90;;;;;;5058302;28;20032;-67
2023/03/03 08:09:38;;;;;;;26.60;10.80;;;3.50;99.90;;;;;;5058275;28;20032;-67
2023/03/03 08:12:06;;;;;;;34.35;9.43;;;3.50;99.90;;;;;;5058580;28;20043;-67
2023/03/03 08:14:35;;;;;;;29.17;11.35;;;3.30;99.90;;;;;;5040486;28;20116;-67
2023/03/03 08:17:01;;;;;;;26.08;9.52;;;3.30;99.90;;;;;;5040854;28;20025;-67
2023/03/03 08:19:29;;;;;;;26.88;11.10;;;3.40;99.90;;;;;;5041054;28;20044;-67
2023/03/03 08:22:01;;;;;;;20.30;8.27;;;3.50;99.90;;;;;;5040786;28;20029;-67
2023/03/03 08:24:27;;;;;;;28.42;10.85;;;3.40;99.90;;;;;;5041144;28;20084;-67
2023/03/03 08:26:52;;;;;;;26.05;9.77;;;3.20;99.90;;;;;;5041106;28;20026;-67
2023/03/03 08:29:18;;;;;;;25.77;9.73;;;3.30;99.90;;;;;;5042161;28;20045;-67
2023/03/03 08:31:43;;;;;;;24.02;8.85;;;3.30;99.90;;;;;;5041238;28;20112;-68
2023/03/03 08:34:09;;;;;;;28.80;9.82;;;3.40;99.90;;;;;;5041240;28;20033;-68
2023/03/03 08:36:34;;;;;;;24.55;10.07;;;3.40;99.90;;;;;;5040542;28;20028;-67
2023/03/03 08:39:01;;;;;;;22.90;9.40;;;3.30;99.90;;;;;;5040809;28;20056;-68
2023/03/03 08:41:26;;;;;;;29.63;10.15;;;3.00;99.90;;;;;;5058088;28;20029;-68
2023/03/03 08:43:52;;;;;;;27.33;9.93;;;3.00;99.90;;;;;;5041757;28;20021;-68
2023/03/03 08:46:17;;;;;;;27.63;10.25;;;3.10;99.90;;;;;;5040463;28;20021;-68
2023/03/03 08:48:43;;;;;;;32.47;9.77;;;2.90;99.90;;;;;;5040338;28;20063;-68
2023/03/03 08:51:09;;;;;;;26.33;9.73;;;3.00;99.90;;;;;;5058417;28;20021;-68
2023/03/03 08:53:37;;;;;;;27.48;9.25;;;2.80;99.90;;;;;;5040370;28;20029;-68
2023/03/03 08:56:03;;;;;;;22.90;9.50;;;3.20;99.90;;;;;;5058791;28;20021;-68
2023/03/03 08:58:29;;;;;;;24.17;8.93;;;3.50;99.90;;;;;;5040287;28;20032;-68
2023/03/03 09:00:54;;;;;;;23.05;9.00;;;3.50;99.90;;;;;;5040415;28;20025;-69
2023/03/03 09:03:20;;;;;;;22.35;9.50;;;3.70;99.90;;;;;;5058177;28;20021;-68
2023/03/03 09:05:45;;;;;;;21.65;8.27;;;3.60;99.90;;;;;;5039909;28;20025;-68
2023/03/03 09:08:11;;;;;;;27.63;8.57;;;3.50;99.90;;;;;;5040641;28;20017;-68
2023/03/03 09:10:37;;;;;;;25.75;9.15;;;3.60;99.90;;;;;;5040153;28;20112;-68
2023/03/03 09:13:15;;;;;;;22.02;9.10;;;3.60;99.90;;;;;;5040006;28;20029;-68
2023/03/03 09:15:41;;;;;;;21.63;8.77;;;3.60;99.90;;;;;;5040336;28;20060;-68
2023/03/03 09:18:16;;;;;;;21.30;9.13;;;3.60;99.90;;;;;;5040195;28;20033;-67
2023/03/03 09:20:47;;;;;;;18.95;8.38;;;3.60;99.90;;;;;;5040452;28;20028;-67
2023/03/03 09:23:40;;;;;;;21.33;8.23;;;3.60;99.90;;;;;;5040236;28;20108;-67
2023/03/03 09:26:21;;;;;;;26.45;9.18;;;3.60;99.90;;;;;;5056286;28;20025;-67
2023/03/03 09:28:47;;;;;;;22.80;9.82;;;3.60;99.90;;;;;;5039527;28;20021;-68
2023/03/03 09:31:40;;;;;;;22.05;9.23;;;3.70;99.90;;;;;;5039261;28;20029;-68
2023/03/03 09:34:20;;;;;;;23.55;9.38;;;3.80;99.90;;;;;;5039781;28;20025;-68
2023/03/03 09:36:48;;;;;;;22.00;8.23;;;3.90;99.90;;;;;;5039313;28;20040;-68
2023/03/03 09:39:22;;;;;;;22.15;8.93;;;3.70;99.90;;;;;;5039167;28;20071;-68
2023/03/03 09:42:00;;;;;;;20.95;8.63;;;3.80;99.90;;;;;;5039330;28;20029;-68
2023/03/03 09:44:55;;;;;;;19.60;8.32;;;3.80;99.90;;;;;;5039768;28;20021;-67
2023/03/03 09:47:54;;;;;;;20.67;7.88;;;3.70;99.90;;;;;;5039376;28;20047;-67
2023/03/03 09:50:38;;;;;;;17.05;7.05;;;3.70;99.90;;;;;;5078027;22;20044;-73
2023/03/03 09:53:29;;;;;;;21.05;8.20;;;3.80;99.90;;;;;;5059676;28;20021;-74
2023/03/03 09:56:30;;;;;;;18.13;7.55;;;3.60;99.90;;;;;;5077067;28;20025;-73
2023/03/03 09:59:25;;;;;;;24.27;7.88;;;3.40;99.90;;;;;;5076619;28;20021;-73
2023/03/03 10:02:12;;;;;;;19.50;7.82;;;3.30;99.90;;;;;;5059805;28;20036;-73
2023/03/03 10:04:42;;;;;;;18.27;7.80;;;3.30;99.90;;;;;;5058934;28;20036;-73
2023/03/03 10:07:40;;;;;;;20.83;9.13;;;3.30;99.90;;;;;;5077051;28;20021;-73
2023/03/03 10:10:17;;;;;;;21.80;8.27;;;3.20;99.90;;;;;;5058310;28;20029;-73
2023/03/03 10:13:03;;;;;;;18.63;7.65;;;3.40;99.90;;;;;;5059139;28;20036;-74
2023/03/03 10:15:57;;;;;;;21.23;7.07;;;3.50;99.90;;;;;;5059961;28;20029;-73
2023/03/03 10:18:49;;;;;;;20.08;7.95;;;3.80;99.90;;;;;;5058780;28;20021;-73
2023/03/03 10:21:14;;;;;;;18.35;7.57;;;3.80;99.90;;;;;;5050851;28;20048;-73
2023/03/03 10:23:50;;;;;;;16.33;6.38;;;4.00;99.90;;;;;;5058649;28;20025;-73
2023/03/03 10:26:27;;;;;;;19.00;7.38;;;3.70;99.90;;;;;;5076668;28;20027;-73
2023/03/03 10:28:59;;;;;;;12.23;5.55;;;4.00;99.90;;;;;;5058769;28;20032;-73
2023/03/03 10:31:43;;;;;;;;;;;4.20;99.90;;;;;;5059108;28;20088;-73
2023/03/03 10:34:41;;;;;;;13.20;5.75;;;3.90;99.90;;;;;;5059088;28;19943;-73
2023/03/03 10:37:20;;;;;;;17.05;6.18;;;4.20;99.90;;;;;;5035968;28;20033;-73
2023/03/03 10:40:00;;;;;;;13.45;5.75;;;4.20;99.90;;;;;;5079807;28;20067;-73
2023/03/03 10:42:41;;;;;;;15.02;5.95;;;3.80;99.90;;;;;;5062662;28;20024;-73
2023/03/03 10:45:39;;;;;;;13.20;5.78;;;3.70;99.90;;;;;;5062982;28;20016;-74
2023/03/03 10:48:42;;;;;;;16.13;6.00;;;4.10;99.90;;;;;;5029735;28;20025;-73
2023/03/03 10:51:47;;;;;;;16.42;5.82;;;3.90;99.90;;;;;;5061611;28;20039;-73
2023/03/03 10:54:29;;;;;;;13.68;6.65;;;4.10;99.90;;;;;;5062361;28;20021;-73
2023/03/03 10:57:37;;;;;;;13.85;5.78;;;4.10;99.90;;;;;;5063116;28;20044;-73
2023/03/03 11:00:30;;;;;;;18.27;7.07;;;4.00;99.90;;;;;;5061877;28;20078;-73
2023/03/03 11:03:17;;;;;;;17.20;6.10;;;3.90;99.90;;;;;;5062100;28;20048;-73
2023/03/03 11:05:53;;;;;;;19.77;6.75;;;3.80;99.90;;;;;;5061850;28;20024;-73
2023/03/03 11:08:21;;;;;;;16.35;6.75;;;3.90;99.90;;;;;;5079270;28;20048;-73
2023/03/03 11:10:53;;;;;;;15.27;6.43;;;4.10;99.90;;;;;;5061878;28;20137;-73
2023/03/03 11:13:23;;;;;;;;;;;4.10;99.90;;;;;;5062101;28;20024;-73
2023/03/03 11:15:49;;;;;;;15.95;6.15;;;4.50;99.90;;;;;;5079196;28;19904;-73
2023/03/03 11:18:22;;;;;;;14.50;6.38;;;4.80;99.90;;;;;;5079343;28;20028;-73
2023/03/03 11:21:07;;;;;;;15.25;5.82;;;5.00;99.90;;;;;;5061632;28;20025;-74
2023/03/03 11:23:52;;;;;;;13.55;5.65;;;5.30;99.90;;;;;;5062576;28;20021;-73
2023/03/03 11:26:27;;;;;;;15.07;6.38;;;5.20;99.90;;;;;;5079473;28;20024;-73
2023/03/03 11:29:05;;;;;;;18.00;6.25;;;5.30;99.90;;;;;;5061464;28;20162;-73
2023/03/03 11:31:47;;;;;;;16.50;5.75;;;5.20;99.90;;;;;;5061613;28;20025;-73
2023/03/03 11:34:33;;;;;;;12.27;5.57;;;5.30;99.90;;;;;;5079025;28;20020;-74
2023/03/03 11:37:09;;;;;;;12.93;6.20;;;5.50;99.90;;;;;;5038346;28;20032;-73
2023/03/03 11:39:35;;;;;;;10.50;5.03;;;5.60;99.90;;;;;;5061068;28;20115;-73
2023/03/03 11:42:15;;;;;;;16.17;5.40;;;5.70;99.90;;;;;;5061026;28;20024;-72
2023/03/03 11:45:04;;;;;;;10.50;5.05;;;5.80;99.90;;;;;;5078764;28;20029;-73
2023/03/03 11:47:48;;;;;;;11.38;4.53;;;6.10;99.90;;;;;;5077762;28;20029;-73
2023/03/03 11:50:30;;;;;;;13.98;5.32;;;6.20;99.90;;;;;;5077946;28;20040;-73
2023/03/03 11:53:17;;;;;;;11.93;5.27;;;6.00;99.90;;;;;;5061649;28;20121;-73
2023/03/03 11:55:47;;;;;;;10.32;4.90;;;6.20;99.90;;;;;;5061159;28;20052;-73
2023/03/03 11:58:42;;;;;;;10.90;5.43;;;6.20;99.90;;;;;;5078388;28;20021;-73
2023/03/03 12:01:22;;;;;;;11.30;4.93;;;6.30;99.90;;;;;;5060633;28;20031;-73
2023/03/03 12:04:23;;;;;;;11.07;4.72;;;6.50;99.90;;;;;;5061917;28;20016;-74
2023/03/03 12:07:09;;;;;;;10.98;4.75;;;7.30;99.90;;;;;;5047453;28;20066;-74
2023/03/03 12:09:57;;;;;;;11.52;5.00;;;7.50;99.90;;;;;;5060937;28;20024;-73
2023/03/03 12:12:43;;;;;;;13.93;4.85;;;7.20;99.90;;;;;;5052639;28;20063;-73
2023/03/03 12:15:24;;;;;;;10.32;4.30;;;7.10;99.90;;;;;;5051714;28;20025;-73
2023/03/03 12:17:55;;;;;;;12.00;5.25;;;7.80;99.90;;;;;;5050606;28;20025;-73
2023/03/03 12:20:50;;;;;;;11.48;5.18;;;7.90;99.90;;;;;;5074712;28;20028;-74
2023/03/03 12:23:26;;;;;;;11.38;5.00;;;8.00;99.90;;;;;;5066218;28;20054;-74
2023/03/03 12:26:11;;;;;;;14.13;6.32;;;8.10;99.90;;;;;;5048377;28;20115;-74
2023/03/03 12:28:44;;;;;;;9.32;4.30;;;8.20;99.90;;;;;;5075847;28;20082;-74
2023/03/03 12:31:28;;;;;;;8.75;4.22;;;8.30;99.90;;;;;;5055890;28;20092;-74
2023/03/03 12:34:02;;;;;;;14.38;5.05;;;8.70;99.90;;;;;;5050203;28;20029;-74
2023/03/03 12:36:57;;;;;;;11.32;5.32;;;8.80;99.90;;;;;;5053277;28;20078;-74
2023/03/03 12:39:37;;;;;;;10.25;4.65;;;9.10;99.90;;;;;;5055768;28;20032;-74
2023/03/03 12:42:19;;;;;;;11.13;4.60;;;9.00;99.90;;;;;;5061001;28;20020;-74
2023/03/03 12:45:09;;;;;;;10.15;5.00;;;9.30;99.90;;;;;;5076164;28;20070;-74
2023/03/03 12:47:39;;;;;;;10.68;5.53;;;9.40;99.90;;;;;;5059926;28;20062;-74
2023/03/03 12:50:31;;;;;;;12.02;5.30;;;9.50;99.90;;;;;;5073003;28;20025;-74
2023/03/03 12:53:10;;;;;;;;;;;9.80;99.90;;;;;;5059586;28;20044;-74
2023/03/03 12:55:49;;;;;;;9.10;4.13;;;9.90;99.90;;;;;;5071993;28;19915;-74
2023/03/03 12:58:33;;;;;;;9.25;4.75;;;10.20;99.90;;;;;;5066449;28;20031;-74
2023/03/03 13:01:07;;;;;;;12.20;5.40;;;9.90;99.90;;;;;;5055136;28;20032;-74
2023/03/03 13:04:04;;;;;;;13.88;5.28;;;10.00;99.90;;;;;;5067872;28;20025;-74
2023/03/03 13:06:46;;;;;;;12.20;5.68;;;10.30;99.90;;;;;;5039275;28;20033;-74
2023/03/03 13:09:18;;;;;;;10.60;4.65;;;10.60;99.90;;;;;;5056528;28;20104;-73